createdAt,value
2018-07-27T00:05:36.832Z,24.10
2018-07-27T00:11:43.263Z,23.88
2018-07-27T00:17:48.738Z,23.99
2018-07-27T00:23:54.287Z,23.67
2018-07-27T00:29:59.774Z,23.73
2018-07-27T00:36:05.301Z,23.83
2018-07-27T00:42:10.772Z,23.73
2018-07-27T00:48:16.251Z,23.66
2018-07-27T00:54:21.735Z,23.53
2018-07-27T01:00:27.270Z,23.43
2018-07-27T01:06:32.771Z,23.16
2018-07-27T01:12:38.265Z,23.01
2018-07-27T01:18:43.765Z,22.88
2018-07-27T01:24:49.270Z,22.71
2018-07-27T01:30:54.502Z,22.51
2018-07-27T01:37:00.085Z,22.37
2018-07-27T01:43:05.584Z,22.23
2018-07-27T01:49:11.640Z,22.11
2018-07-27T01:55:17.223Z,21.93
2018-07-27T02:01:22.435Z,21.84
2018-07-27T02:07:27.804Z,21.72
2018-07-27T02:13:33.346Z,21.65
2018-07-27T02:19:38.807Z,21.62
2018-07-27T02:25:44.341Z,21.37
2018-07-27T02:31:49.825Z,21.37
2018-07-27T02:37:55.301Z,21.36
2018-07-27T02:44:00.803Z,21.30
2018-07-27T02:50:06.854Z,21.24
2018-07-27T02:56:12.311Z,21.30
2018-07-27T03:02:17.524Z,21.26
2018-07-27T03:08:22.924Z,21.32
2018-07-27T03:14:28.401Z,20.91
2018-07-27T03:20:33.915Z,20.72
2018-07-27T03:26:39.430Z,20.33
2018-07-27T03:32:44.962Z,20.46
2018-07-27T03:38:50.471Z,20.25
2018-07-27T03:44:56.061Z,19.96
2018-07-27T03:51:01.657Z,19.88
2018-07-27T03:57:07.215Z,19.95
2018-07-27T04:03:12.696Z,19.80
2018-07-27T04:09:18.197Z,19.94
2018-07-27T04:15:23.659Z,20.09
2018-07-27T04:21:29.154Z,20.23
2018-07-27T04:27:34.640Z,20.32
2018-07-27T04:33:40.554Z,20.38
2018-07-27T04:39:46.514Z,20.50
2018-07-27T04:45:52.368Z,20.62
2018-07-27T04:51:58.221Z,20.86
2018-07-27T04:58:03.731Z,21.01
2018-07-27T05:04:09.488Z,21.23
2018-07-27T05:10:20.374Z,21.40
2018-07-27T05:16:25.885Z,21.62
2018-07-27T05:22:31.356Z,21.86
2018-07-27T05:28:36.902Z,22.02
2018-07-27T05:34:42.813Z,22.31
2018-07-27T05:40:48.713Z,22.70
2018-07-27T05:46:54.580Z,22.88
2018-07-27T05:53:00.467Z,23.23
2018-07-27T05:59:06.388Z,23.51
2018-07-27T06:05:12.120Z,24.05
2018-07-27T06:11:17.646Z,24.18
2018-07-27T06:17:23.103Z,24.64
2018-07-27T06:23:28.638Z,24.91
2018-07-27T06:29:35.078Z,25.15
2018-07-27T06:35:40.943Z,25.33
2018-07-27T06:41:46.818Z,25.59
2018-07-27T06:47:52.716Z,25.82
2018-07-27T06:53:58.655Z,26.33
2018-07-27T07:00:04.535Z,26.50
2018-07-27T07:06:10.454Z,26.72
2018-07-27T07:12:16.314Z,27.48
2018-07-27T07:18:22.157Z,27.50
2018-07-27T07:24:28.163Z,28.01
2018-07-27T07:30:34.121Z,28.41
2018-07-27T07:36:39.993Z,28.16
2018-07-27T07:42:45.907Z,28.57
2018-07-27T07:48:51.785Z,28.79
2018-07-27T07:54:57.846Z,29.54
2018-07-27T08:01:03.835Z,29.97
2018-07-27T08:07:09.653Z,30.69
2018-07-27T08:13:15.585Z,30.88
2018-07-27T08:19:21.561Z,31.11
2018-07-27T08:25:30.445Z,31.18
2018-07-27T08:31:36.317Z,31.95
2018-07-27T08:37:42.141Z,31.32
2018-07-27T08:43:48.212Z,31.50
2018-07-27T08:49:54.137Z,31.84
2018-07-27T08:56:00.006Z,32.39
2018-07-27T09:02:05.932Z,32.59
2018-07-27T09:08:12.191Z,32.24
2018-07-27T09:14:18.125Z,32.50
2018-07-27T09:20:24.220Z,33.36
2018-07-27T09:26:30.149Z,33.70
2018-07-27T09:32:36.033Z,34.57
2018-07-27T09:38:41.941Z,34.94
2018-07-27T09:44:47.868Z,35.36
2018-07-27T09:50:53.869Z,35.85
2018-07-27T09:56:59.751Z,35.77
2018-07-27T10:03:05.995Z,36.75
2018-07-27T10:09:11.823Z,37.63
2018-07-27T10:15:17.794Z,37.64
2018-07-27T10:21:23.708Z,37.69
2018-07-27T10:27:29.630Z,38.15
2018-07-27T10:33:35.502Z,37.05
2018-07-27T10:39:41.383Z,36.83
2018-07-27T10:45:47.257Z,37.15
2018-07-27T10:51:52.735Z,38.10
2018-07-27T10:57:58.508Z,37.87
2018-07-27T11:04:04.434Z,37.29
2018-07-27T11:10:11.016Z,38.25
2018-07-27T11:16:17.006Z,37.85
2018-07-27T11:22:22.937Z,37.39
2018-07-27T11:28:28.782Z,39.44
2018-07-27T11:34:34.679Z,38.73
2018-07-27T11:40:40.534Z,36.92
2018-07-27T11:46:46.509Z,36.39
2018-07-27T11:52:52.487Z,36.95
2018-07-27T11:58:58.400Z,37.94
2018-07-27T12:05:04.249Z,40.06
2018-07-27T12:11:10.244Z,42.08
2018-07-27T12:17:16.214Z,40.87
2018-07-27T12:23:22.171Z,39.44
2018-07-27T12:29:28.080Z,39.15
2018-07-27T12:35:33.914Z,39.45
2018-07-27T12:41:40.978Z,38.19
2018-07-27T12:47:46.911Z,36.68
2018-07-27T12:53:52.732Z,35.76
2018-07-27T12:59:58.749Z,35.60
2018-07-27T13:06:04.775Z,35.29
2018-07-27T13:12:10.728Z,34.96
2018-07-27T13:18:16.172Z,34.95
2018-07-27T13:24:22.112Z,35.11
2018-07-27T13:30:28.003Z,37.07
2018-07-27T13:36:33.955Z,39.89
2018-07-27T13:42:39.925Z,39.82
2018-07-27T13:48:45.841Z,39.39
2018-07-27T13:54:51.755Z,38.77
2018-07-27T14:00:57.707Z,41.17
2018-07-27T14:07:04.666Z,40.77
2018-07-27T14:13:10.507Z,40.44
2018-07-27T14:19:17.522Z,41.59
2018-07-27T14:25:23.460Z,43.95
2018-07-27T14:31:29.350Z,44.80
2018-07-27T14:37:35.323Z,43.04
2018-07-27T14:43:41.253Z,41.94
2018-07-27T14:49:47.108Z,43.14
2018-07-27T14:55:53.022Z,44.75
2018-07-27T15:01:58.974Z,45.73
2018-07-27T15:08:04.963Z,46.30
2018-07-27T15:14:10.777Z,46.95
2018-07-27T15:20:16.732Z,46.15
2018-07-27T15:26:22.650Z,43.13
2018-07-27T15:32:28.530Z,40.30
2018-07-27T15:38:34.343Z,39.12
2018-07-27T15:44:40.300Z,37.74
2018-07-27T15:50:46.560Z,36.66
2018-07-27T15:56:52.431Z,35.58
2018-07-27T16:02:58.278Z,34.86
2018-07-27T16:09:05.137Z,34.60
2018-07-27T16:15:11.060Z,34.38
2018-07-27T16:21:17.073Z,34.22
2018-07-27T16:27:23.496Z,34.64
2018-07-27T16:33:29.451Z,37.75
2018-07-27T16:39:35.512Z,39.91
2018-07-27T16:45:41.332Z,39.08
2018-07-27T16:51:47.205Z,37.85
2018-07-27T16:57:53.113Z,36.04
2018-07-27T17:03:59.049Z,38.60
2018-07-27T17:10:05.528Z,38.53
2018-07-27T17:16:11.472Z,35.86
2018-07-27T17:22:17.438Z,35.90
2018-07-27T17:28:23.344Z,33.95
2018-07-27T17:34:29.207Z,32.61
2018-07-27T17:40:35.155Z,32.10
2018-07-27T17:46:41.120Z,31.07
2018-07-27T17:52:47.102Z,30.49
2018-07-27T17:58:53.252Z,30.25
2018-07-27T18:04:59.180Z,30.00
2018-07-27T18:11:05.059Z,29.93
2018-07-27T18:17:10.926Z,29.77
2018-07-27T18:23:16.900Z,29.87
2018-07-27T18:29:22.756Z,30.40
2018-07-27T18:35:28.604Z,30.83
2018-07-27T18:41:34.506Z,30.94
2018-07-27T18:47:40.341Z,30.53
2018-07-27T18:53:46.212Z,29.91
2018-07-27T18:59:52.096Z,29.98
2018-07-27T19:05:57.965Z,29.46
2018-07-27T19:12:03.785Z,29.06
2018-07-27T19:18:09.616Z,28.76
2018-07-27T19:24:15.479Z,28.33
2018-07-27T19:30:20.913Z,27.79
2018-07-27T19:36:26.644Z,27.75
2018-07-27T19:42:32.535Z,27.22
2018-07-27T19:48:38.374Z,27.43
2018-07-27T19:54:43.851Z,27.41
2018-07-27T20:00:49.348Z,27.52
2018-07-27T20:06:54.843Z,27.34
2018-07-27T20:13:00.408Z,27.01
2018-07-27T20:19:05.965Z,26.79
2018-07-27T20:25:11.526Z,26.74
2018-07-27T20:31:17.046Z,26.63
2018-07-27T20:37:22.632Z,26.45
2018-07-27T20:43:28.143Z,26.29
2018-07-27T20:49:33.587Z,26.20
2018-07-27T20:55:39.178Z,25.93
2018-07-27T21:01:44.662Z,25.55
2018-07-27T21:07:50.141Z,25.28
2018-07-27T21:13:55.619Z,25.23
2018-07-27T21:20:01.150Z,25.43
2018-07-27T21:26:07.540Z,25.21
2018-07-27T21:32:12.966Z,25.14
2018-07-27T21:38:18.557Z,24.96
2018-07-27T21:44:23.998Z,25.18
2018-07-27T21:50:29.475Z,24.77
2018-07-27T21:56:35.032Z,24.74
2018-07-27T22:02:40.493Z,24.55
2018-07-27T22:08:45.991Z,24.54
2018-07-27T22:14:51.476Z,24.36
2018-07-27T22:20:56.937Z,24.30
2018-07-27T22:27:02.504Z,24.35
2018-07-27T22:33:08.043Z,24.38
2018-07-27T22:39:13.531Z,24.13
2018-07-27T22:45:19.018Z,24.07
2018-07-27T22:51:24.540Z,24.09
2018-07-27T22:57:30.286Z,24.01
2018-07-27T23:03:35.755Z,24.12
2018-07-27T23:09:41.265Z,23.72
2018-07-27T23:15:46.800Z,23.81
2018-07-27T23:21:52.282Z,23.75
2018-07-27T23:27:57.796Z,23.97
2018-07-27T23:34:03.262Z,24.10
2018-07-27T23:40:09.294Z,23.71
2018-07-27T23:46:15.140Z,23.43
2018-07-27T23:52:21.087Z,23.14
2018-07-27T23:58:26.651Z,23.07
